createdAt,value
2022-08-26T17:31:40.928Z,99164.53
2022-08-26T17:37:05.417Z,99165.95
2022-08-26T17:39:33.424Z,99166.36
2022-08-26T17:42:01.658Z,99160.35
2022-08-26T17:44:30.150Z,99165.43
2022-08-26T17:46:58.905Z,99161.88
2022-08-26T17:49:33.304Z,99161.40
2022-08-26T17:52:08.467Z,99159.73
2022-08-26T17:54:43.706Z,99156.00
2022-08-26T17:57:13.818Z,99151.52
2022-08-26T17:59:51.048Z,99150.51
2022-08-26T18:02:23.852Z,99151.98
2022-08-26T18:04:52.714Z,99154.11
2022-08-26T18:07:20.858Z,99150.13
2022-08-26T18:09:49.479Z,99154.11
2022-08-26T18:12:17.993Z,99151.98
2022-08-26T18:14:46.583Z,99154.17
2022-08-26T18:17:16.272Z,99156.96
2022-08-26T18:19:48.383Z,99152.66
2022-08-26T18:22:17.204Z,99148.23
2022-08-26T18:24:57.377Z,99146.63
2022-08-26T18:27:28.274Z,99150.12
2022-08-26T18:29:57.542Z,99146.03
2022-08-26T18:32:25.754Z,99144.98
2022-08-26T18:35:21.358Z,99146.23
2022-08-26T18:37:51.441Z,99139.63
2022-08-26T18:40:21.079Z,99140.25
2022-08-26T18:42:54.219Z,99140.88
2022-08-26T18:45:22.840Z,99140.38
2022-08-26T18:47:51.442Z,99146.59
2022-08-26T18:50:19.739Z,99146.96
2022-08-26T18:52:48.033Z,99145.27
2022-08-26T18:55:16.800Z,99148.02
2022-08-26T18:57:45.004Z,99149.41
2022-08-26T19:00:14.093Z,99150.21
2022-08-26T19:02:42.124Z,99149.73
2022-08-26T19:05:15.522Z,99150.38
2022-08-26T19:07:44.015Z,99152.02
2022-08-26T19:10:17.314Z,99147.27
2022-08-26T19:12:46.455Z,99143.67
2022-08-26T19:15:20.010Z,99147.06
2022-08-26T19:17:48.466Z,99141.73
2022-08-26T19:20:16.603Z,99141.90
2022-08-26T19:22:45.899Z,99143.86
2022-08-26T19:25:14.229Z,99142.82
2022-08-26T19:27:42.084Z,99143.96
2022-08-26T19:30:10.925Z,99146.16
2022-08-26T19:32:39.780Z,99144.96
2022-08-26T19:35:08.454Z,99149.38
2022-08-26T19:37:36.524Z,99150.77
2022-08-26T19:40:08.165Z,99149.02
2022-08-26T19:42:45.476Z,99149.05
2022-08-26T19:45:25.056Z,99152.36
2022-08-26T19:48:12.010Z,99151.34
2022-08-26T19:50:40.303Z,99152.02
2022-08-26T19:53:10.172Z,99152.05
2022-08-26T19:55:39.349Z,99155.23
2022-08-26T19:58:27.625Z,99156.61
2022-08-26T20:00:56.169Z,99158.61
2022-08-26T20:03:24.451Z,99157.63
2022-08-26T20:05:52.395Z,99157.11
2022-08-26T20:08:22.242Z,99161.73
2022-08-26T20:10:51.477Z,99159.63
2022-08-26T20:13:21.123Z,99156.52
2022-08-26T20:15:49.285Z,99157.06
2022-08-26T20:18:36.813Z,99160.90
2022-08-26T20:21:25.967Z,99161.13
2022-08-26T20:24:09.972Z,99162.45
2022-08-26T20:26:40.039Z,99164.05
2022-08-26T20:29:10.390Z,99163.19
2022-08-26T20:31:39.629Z,99165.33
2022-08-26T20:34:07.958Z,99165.58
2022-08-26T20:36:39.579Z,99169.05
2022-08-26T20:39:10.724Z,99166.57
2022-08-26T20:41:40.035Z,99167.61
2022-08-26T20:44:09.445Z,99164.88
2022-08-26T20:46:38.553Z,99163.53
2022-08-26T20:49:07.617Z,99158.09
2022-08-26T20:51:37.179Z,99154.80
2022-08-26T20:54:07.146Z,99152.99
2022-08-26T20:56:36.652Z,99156.39
2022-08-26T20:59:06.802Z,99152.02
2022-08-26T21:01:39.876Z,99153.51
2022-08-26T21:04:15.323Z,99157.98
2022-08-26T21:06:45.159Z,99154.89
2022-08-26T21:09:23.342Z,99154.29
2022-08-26T21:11:52.498Z,99154.55
2022-08-26T21:14:22.842Z,99154.14
2022-08-26T21:16:54.252Z,99155.80
2022-08-26T21:19:22.791Z,99149.02
2022-08-26T21:21:50.956Z,99149.98
2022-08-26T21:24:19.525Z,99142.51
2022-08-26T21:26:48.385Z,99148.39
2022-08-26T21:29:16.488Z,99151.17
2022-08-26T21:31:46.447Z,99148.45
2022-08-26T21:34:18.437Z,99148.48
2022-08-26T21:36:49.692Z,99149.27
2022-08-26T21:39:18.244Z,99149.59
2022-08-26T21:41:47.403Z,99146.42
2022-08-26T21:44:17.739Z,99149.45
2022-08-26T21:46:47.098Z,99143.59
2022-08-26T21:49:17.485Z,99145.94
2022-08-26T21:51:48.848Z,99144.84
2022-08-26T21:54:18.275Z,99149.73
2022-08-26T21:56:48.549Z,99148.19
2022-08-26T21:59:19.571Z,99149.91
2022-08-26T22:01:48.953Z,99150.67
2022-08-26T22:04:18.202Z,99146.70
2022-08-26T22:06:53.908Z,99142.11
2022-08-26T22:09:26.828Z,99138.17
2022-08-26T22:11:57.034Z,99142.69
2022-08-26T22:14:30.785Z,99140.48
2022-08-26T22:17:33.367Z,99136.27
2022-08-26T22:20:01.975Z,99129.05
2022-08-26T22:22:32.139Z,99126.73
2022-08-26T22:25:00.169Z,99126.41
2022-08-26T22:27:28.250Z,99128.84
2022-08-26T22:29:56.108Z,99127.31
2022-08-26T22:32:23.952Z,99129.66
2022-08-26T22:34:51.839Z,99125.70
2022-08-26T22:37:20.545Z,99128.89
2022-08-26T22:39:48.708Z,99124.63
2022-08-26T22:42:16.920Z,99127.26
2022-08-26T22:44:45.180Z,99122.39
2022-08-26T22:47:13.145Z,99124.71
2022-08-26T22:49:41.679Z,99125.71
2022-08-26T22:52:09.813Z,99128.49
2022-08-26T22:54:37.887Z,99132.71
2022-08-26T22:57:06.145Z,99133.49
2022-08-26T22:59:34.537Z,99123.51
2022-08-26T23:02:02.469Z,99117.80
2022-08-26T23:04:30.579Z,99121.52
2022-08-26T23:06:58.870Z,99119.30
2022-08-26T23:09:26.682Z,99113.92
2022-08-26T23:11:56.518Z,99109.68
2022-08-26T23:14:25.773Z,99110.36
2022-08-26T23:16:53.735Z,99105.77
2022-08-26T23:19:22.801Z,99101.96
2022-08-26T23:21:51.171Z,99099.06
2022-08-26T23:24:19.389Z,99091.16
2022-08-26T23:26:48.519Z,99102.96
2022-08-26T23:29:16.832Z,99103.21
2022-08-26T23:31:45.558Z,99104.98
2022-08-26T23:34:32.339Z,99106.05
2022-08-26T23:37:01.081Z,99102.86
2022-08-26T23:39:32.626Z,99101.72
2022-08-26T23:42:02.991Z,99103.64
2022-08-26T23:44:31.389Z,99101.34
2022-08-26T23:47:00.145Z,99104.40
2022-08-26T23:49:29.151Z,99105.26
2022-08-26T23:52:15.977Z,99101.77
2022-08-26T23:54:45.404Z,99099.77
2022-08-26T23:57:13.112Z,99099.98
2022-08-26T23:59:41.180Z,99097.49
